sensor_id;sensor_type;location;lat;lon;timestamp;P1;durP1;ratioP1;P2;durP2;ratioP2
56181;SDS011;51963;46.052;14.544;2024-03-17T00:01:10;63.60;;;27.38;;
56181;SDS011;51963;46.052;14.544;2024-03-17T00:03:35;131.10;;;30.45;;
56181;SDS011;51963;46.052;14.544;2024-03-17T00:06:01;73.13;;;27.00;;
56181;SDS011;51963;46.052;14.544;2024-03-17T00:08:29;63.50;;;27.42;;
56181;SDS011;51963;46.052;14.544;2024-03-17T00:10:55;89.82;;;30.88;;
56181;SDS011;51963;46.052;14.544;2024-03-17T00:13:21;84.45;;;29.15;;
56181;SDS011;51963;46.052;14.544;2024-03-17T00:15:48;71.47;;;28.45;;
56181;SDS011;51963;46.052;14.544;2024-03-17T00:18:13;111.57;;;29.33;;
56181;SDS011;51963;46.052;14.544;2024-03-17T00:20:39;72.35;;;27.48;;
56181;SDS011;51963;46.052;14.544;2024-03-17T00:23:05;59.30;;;26.13;;
56181;SDS011;51963;46.052;14.544;2024-03-17T00:25:32;65.72;;;27.02;;
56181;SDS011;51963;46.052;14.544;2024-03-17T00:27:59;75.33;;;28.93;;
56181;SDS011;51963;46.052;14.544;2024-03-17T00:30:25;59.40;;;25.08;;
56181;SDS011;51963;46.052;14.544;2024-03-17T00:32:51;77.50;;;28.10;;
56181;SDS011;51963;46.052;14.544;2024-03-17T00:35:22;66.00;;;27.10;;
56181;SDS011;51963;46.052;14.544;2024-03-17T00:37:48;94.05;;;33.90;;
56181;SDS011;51963;46.052;14.544;2024-03-17T00:40:14;81.05;;;34.65;;
56181;SDS011;51963;46.052;14.544;2024-03-17T00:42:41;85.03;;;34.97;;
56181;SDS011;51963;46.052;14.544;2024-03-17T00:45:07;211.45;;;40.13;;
56181;SDS011;51963;46.052;14.544;2024-03-17T00:47:35;122.03;;;34.17;;
56181;SDS011;51963;46.052;14.544;2024-03-17T00:50:01;100.60;;;35.42;;
56181;SDS011;51963;46.052;14.544;2024-03-17T00:52:28;91.93;;;32.47;;
56181;SDS011;51963;46.052;14.544;2024-03-17T00:54:56;204.15;;;35.70;;
56181;SDS011;51963;46.052;14.544;2024-03-17T00:57:22;122.25;;;29.70;;
56181;SDS011;51963;46.052;14.544;2024-03-17T00:59:47;78.00;;;28.98;;
56181;SDS011;51963;46.052;14.544;2024-03-17T01:02:14;128.73;;;30.10;;
56181;SDS011;51963;46.052;14.544;2024-03-17T01:04:41;111.93;;;31.98;;
56181;SDS011;51963;46.052;14.544;2024-03-17T01:07:11;67.70;;;26.50;;
56181;SDS011;51963;46.052;14.544;2024-03-17T01:09:37;69.68;;;27.65;;
56181;SDS011;51963;46.052;14.544;2024-03-17T01:12:03;66.28;;;26.83;;
56181;SDS011;51963;46.052;14.544;2024-03-17T01:14:29;185.68;;;31.17;;
56181;SDS011;51963;46.052;14.544;2024-03-17T01:16:58;85.00;;;27.23;;
56181;SDS011;51963;46.052;14.544;2024-03-17T01:19:25;74.90;;;26.73;;
56181;SDS011;51963;46.052;14.544;2024-03-17T01:21:52;102.40;;;28.27;;
56181;SDS011;51963;46.052;14.544;2024-03-17T01:24:17;71.45;;;24.40;;
56181;SDS011;51963;46.052;14.544;2024-03-17T01:26:43;62.00;;;23.27;;
56181;SDS011;51963;46.052;14.544;2024-03-17T01:29:10;66.93;;;24.67;;
56181;SDS011;51963;46.052;14.544;2024-03-17T01:31:35;104.30;;;26.58;;
56181;SDS011;51963;46.052;14.544;2024-03-17T01:34:01;82.07;;;25.58;;
56181;SDS011;51963;46.052;14.544;2024-03-17T01:36:26;57.03;;;23.85;;
56181;SDS011;51963;46.052;14.544;2024-03-17T01:38:52;52.05;;;23.33;;
56181;SDS011;51963;46.052;14.544;2024-03-17T01:41:18;113.57;;;26.20;;
56181;SDS011;51963;46.052;14.544;2024-03-17T01:43:43;54.78;;;23.40;;
56181;SDS011;51963;46.052;14.544;2024-03-17T01:46:13;58.08;;;23.50;;
56181;SDS011;51963;46.052;14.544;2024-03-17T01:48:45;58.65;;;24.35;;
56181;SDS011;51963;46.052;14.544;2024-03-17T01:51:11;89.35;;;25.33;;
56181;SDS011;51963;46.052;14.544;2024-03-17T01:53:40;57.75;;;23.88;;
56181;SDS011;51963;46.052;14.544;2024-03-17T01:56:07;101.50;;;26.00;;
56181;SDS011;51963;46.052;14.544;2024-03-17T01:58:35;61.67;;;24.27;;
56181;SDS011;51963;46.052;14.544;2024-03-17T02:01:01;63.47;;;24.75;;
56181;SDS011;51963;46.052;14.544;2024-03-17T02:03:30;68.75;;;25.20;;
56181;SDS011;51963;46.052;14.544;2024-03-17T02:05:58;85.30;;;27.63;;
56181;SDS011;51963;46.052;14.544;2024-03-17T02:08:24;100.07;;;28.88;;
56181;SDS011;51963;46.052;14.544;2024-03-17T02:10:53;93.72;;;33.20;;
56181;SDS011;51963;46.052;14.544;2024-03-17T02:13:20;81.90;;;31.05;;
56181;SDS011;51963;46.052;14.544;2024-03-17T02:15:46;124.60;;;37.15;;
56181;SDS011;51963;46.052;14.544;2024-03-17T02:18:12;104.93;;;35.70;;
56181;SDS011;51963;46.052;14.544;2024-03-17T02:20:39;140.50;;;37.03;;
56181;SDS011;51963;46.052;14.544;2024-03-17T02:23:20;99.93;;;36.47;;
56181;SDS011;51963;46.052;14.544;2024-03-17T02:25:46;133.07;;;39.22;;
56181;SDS011;51963;46.052;14.544;2024-03-17T02:28:13;148.40;;;38.35;;
56181;SDS011;51963;46.052;14.544;2024-03-17T02:30:38;127.57;;;37.90;;
56181;SDS011;51963;46.052;14.544;2024-03-17T02:33:04;109.20;;;36.22;;
56181;SDS011;51963;46.052;14.544;2024-03-17T02:35:30;77.72;;;31.95;;
56181;SDS011;51963;46.052;14.544;2024-03-17T02:37:57;72.53;;;30.00;;
56181;SDS011;51963;46.052;14.544;2024-03-17T02:40:22;90.75;;;32.33;;
56181;SDS011;51963;46.052;14.544;2024-03-17T02:42:48;89.38;;;37.03;;
56181;SDS011;51963;46.052;14.544;2024-03-17T02:45:14;95.13;;;39.58;;
56181;SDS011;51963;46.052;14.544;2024-03-17T02:47:40;84.93;;;30.25;;
56181;SDS011;51963;46.052;14.544;2024-03-17T02:50:06;95.93;;;29.52;;
56181;SDS011;51963;46.052;14.544;2024-03-17T02:52:33;118.38;;;31.05;;
56181;SDS011;51963;46.052;14.544;2024-03-17T02:54:59;122.43;;;31.00;;
56181;SDS011;51963;46.052;14.544;2024-03-17T02:57:28;100.80;;;32.17;;
56181;SDS011;51963;46.052;14.544;2024-03-17T03:00:00;109.63;;;32.83;;
56181;SDS011;51963;46.052;14.544;2024-03-17T03:02:25;84.72;;;30.55;;
56181;SDS011;51963;46.052;14.544;2024-03-17T03:04:52;77.90;;;29.05;;
56181;SDS011;51963;46.052;14.544;2024-03-17T03:07:17;80.05;;;28.63;;
56181;SDS011;51963;46.052;14.544;2024-03-17T03:09:43;77.82;;;28.13;;
56181;SDS011;51963;46.052;14.544;2024-03-17T03:12:09;65.03;;;25.20;;
56181;SDS011;51963;46.052;14.544;2024-03-17T03:14:34;105.20;;;26.55;;
56181;SDS011;51963;46.052;14.544;2024-03-17T03:17:00;69.72;;;24.92;;
56181;SDS011;51963;46.052;14.544;2024-03-17T03:19:28;64.63;;;25.27;;
56181;SDS011;51963;46.052;14.544;2024-03-17T03:21:55;81.82;;;27.45;;
56181;SDS011;51963;46.052;14.544;2024-03-17T03:24:21;114.28;;;26.23;;
56181;SDS011;51963;46.052;14.544;2024-03-17T03:26:47;59.20;;;22.58;;
56181;SDS011;51963;46.052;14.544;2024-03-17T03:29:13;96.25;;;25.45;;
56181;SDS011;51963;46.052;14.544;2024-03-17T03:34:07;96.13;;;26.13;;
56181;SDS011;51963;46.052;14.544;2024-03-17T03:36:34;67.05;;;25.08;;
56181;SDS011;51963;46.052;14.544;2024-03-17T03:39:01;94.72;;;28.75;;
56181;SDS011;51963;46.052;14.544;2024-03-17T03:41:29;103.53;;;28.00;;
56181;SDS011;51963;46.052;14.544;2024-03-17T03:43:55;65.53;;;28.35;;
56181;SDS011;51963;46.052;14.544;2024-03-17T03:46:21;88.22;;;29.40;;
56181;SDS011;51963;46.052;14.544;2024-03-17T03:48:46;61.75;;;26.75;;
56181;SDS011;51963;46.052;14.544;2024-03-17T03:51:12;81.15;;;28.60;;
56181;SDS011;51963;46.052;14.544;2024-03-17T03:53:39;87.10;;;28.92;;
56181;SDS011;51963;46.052;14.544;2024-03-17T03:56:05;102.22;;;29.75;;
56181;SDS011;51963;46.052;14.544;2024-03-17T03:58:32;97.95;;;28.77;;
56181;SDS011;51963;46.052;14.544;2024-03-17T04:01:04;93.47;;;28.77;;
56181;SDS011;51963;46.052;14.544;2024-03-17T04:03:33;84.88;;;28.13;;
56181;SDS011;51963;46.052;14.544;2024-03-17T04:06:04;70.55;;;26.75;;
56181;SDS011;51963;46.052;14.544;2024-03-17T04:08:32;91.03;;;31.42;;
56181;SDS011;51963;46.052;14.544;2024-03-17T04:11:01;92.32;;;30.75;;
56181;SDS011;51963;46.052;14.544;2024-03-17T04:13:30;107.90;;;33.55;;
56181;SDS011;51963;46.052;14.544;2024-03-17T04:15:57;73.30;;;29.48;;
56181;SDS011;51963;46.052;14.544;2024-03-17T04:18:26;66.10;;;28.70;;
56181;SDS011;51963;46.052;14.544;2024-03-17T04:20:56;62.25;;;26.75;;
56181;SDS011;51963;46.052;14.544;2024-03-17T04:23:23;60.15;;;26.35;;
56181;SDS011;51963;46.052;14.544;2024-03-17T04:25:50;57.78;;;24.63;;
56181;SDS011;51963;46.052;14.544;2024-03-17T04:28:16;75.47;;;27.52;;
56181;SDS011;51963;46.052;14.544;2024-03-17T04:30:42;64.13;;;24.20;;
56181;SDS011;51963;46.052;14.544;2024-03-17T04:33:11;68.30;;;24.90;;
56181;SDS011;51963;46.052;14.544;2024-03-17T04:35:37;62.90;;;25.63;;
56181;SDS011;51963;46.052;14.544;2024-03-17T04:38:03;68.55;;;25.88;;
56181;SDS011;51963;46.052;14.544;2024-03-17T04:40:42;82.15;;;25.83;;
56181;SDS011;51963;46.052;14.544;2024-03-17T04:43:08;76.47;;;26.48;;
56181;SDS011;51963;46.052;14.544;2024-03-17T04:45:34;67.30;;;21.63;;
56181;SDS011;51963;46.052;14.544;2024-03-17T04:50:28;59.50;;;19.00;;
56181;SDS011;51963;46.052;14.544;2024-03-17T04:52:59;51.33;;;18.95;;
56181;SDS011;51963;46.052;14.544;2024-03-17T04:55:25;58.13;;;19.25;;
56181;SDS011;51963;46.052;14.544;2024-03-17T04:57:50;60.30;;;20.58;;
56181;SDS011;51963;46.052;14.544;2024-03-17T05:00:16;74.40;;;22.00;;
56181;SDS011;51963;46.052;14.544;2024-03-17T05:02:43;55.35;;;23.55;;
56181;SDS011;51963;46.052;14.544;2024-03-17T05:05:09;95.60;;;25.88;;
56181;SDS011;51963;46.052;14.544;2024-03-17T05:07:36;63.70;;;24.73;;
56181;SDS011;51963;46.052;14.544;2024-03-17T05:10:02;57.53;;;22.42;;
56181;SDS011;51963;46.052;14.544;2024-03-17T05:12:29;77.00;;;22.42;;
56181;SDS011;51963;46.052;14.544;2024-03-17T05:14:54;56.97;;;20.17;;
56181;SDS011;51963;46.052;14.544;2024-03-17T05:17:20;76.53;;;21.05;;
56181;SDS011;51963;46.052;14.544;2024-03-17T05:19:45;43.60;;;21.33;;
56181;SDS011;51963;46.052;14.544;2024-03-17T05:22:11;48.28;;;20.08;;
56181;SDS011;51963;46.052;14.544;2024-03-17T05:24:37;40.15;;;18.90;;
56181;SDS011;51963;46.052;14.544;2024-03-17T05:27:02;48.72;;;18.83;;
56181;SDS011;51963;46.052;14.544;2024-03-17T05:29:28;73.20;;;20.30;;
56181;SDS011;51963;46.052;14.544;2024-03-17T05:31:54;41.25;;;19.33;;
56181;SDS011;51963;46.052;14.544;2024-03-17T05:34:21;62.92;;;20.90;;
56181;SDS011;51963;46.052;14.544;2024-03-17T05:36:50;61.72;;;21.83;;
56181;SDS011;51963;46.052;14.544;2024-03-17T05:39:16;60.95;;;23.95;;
56181;SDS011;51963;46.052;14.544;2024-03-17T05:41:42;47.83;;;20.50;;
56181;SDS011;51963;46.052;14.544;2024-03-17T05:44:12;54.58;;;20.77;;
56181;SDS011;51963;46.052;14.544;2024-03-17T05:46:37;56.30;;;21.20;;
56181;SDS011;51963;46.052;14.544;2024-03-17T05:49:04;64.13;;;19.67;;
56181;SDS011;51963;46.052;14.544;2024-03-17T05:51:32;54.80;;;20.42;;
56181;SDS011;51963;46.052;14.544;2024-03-17T05:54:00;47.85;;;20.27;;
56181;SDS011;51963;46.052;14.544;2024-03-17T05:56:27;46.00;;;19.42;;
56181;SDS011;51963;46.052;14.544;2024-03-17T05:58:53;43.08;;;19.63;;
56181;SDS011;51963;46.052;14.544;2024-03-17T06:01:20;39.20;;;19.30;;
56181;SDS011;51963;46.052;14.544;2024-03-17T06:03:47;51.45;;;20.73;;
56181;SDS011;51963;46.052;14.544;2024-03-17T06:06:13;47.33;;;20.98;;
56181;SDS011;51963;46.052;14.544;2024-03-17T06:08:40;53.90;;;20.45;;
56181;SDS011;51963;46.052;14.544;2024-03-17T06:11:06;50.67;;;21.17;;
56181;SDS011;51963;46.052;14.544;2024-03-17T06:13:32;65.38;;;21.92;;
56181;SDS011;51963;46.052;14.544;2024-03-17T06:15:57;73.80;;;24.23;;
56181;SDS011;51963;46.052;14.544;2024-03-17T06:18:26;51.35;;;22.15;;
56181;SDS011;51963;46.052;14.544;2024-03-17T06:20:52;57.10;;;22.55;;
56181;SDS011;51963;46.052;14.544;2024-03-17T06:23:24;52.13;;;21.27;;
56181;SDS011;51963;46.052;14.544;2024-03-17T06:25:59;49.15;;;20.15;;
56181;SDS011;51963;46.052;14.544;2024-03-17T06:28:30;58.17;;;20.40;;
56181;SDS011;51963;46.052;14.544;2024-03-17T06:36:47;43.28;;;18.58;;
56181;SDS011;51963;46.052;14.544;2024-03-17T06:39:40;42.15;;;19.35;;
56181;SDS011;51963;46.052;14.544;2024-03-17T06:42:21;42.25;;;19.55;;
56181;SDS011;51963;46.052;14.544;2024-03-17T06:47:56;46.50;;;20.25;;
56181;SDS011;51963;46.052;14.544;2024-03-17T06:50:22;47.08;;;19.70;;
56181;SDS011;51963;46.052;14.544;2024-03-17T06:52:47;58.85;;;21.92;;
56181;SDS011;51963;46.052;14.544;2024-03-17T06:55:19;59.00;;;20.88;;
56181;SDS011;51963;46.052;14.544;2024-03-17T06:57:53;59.20;;;22.88;;
56181;SDS011;51963;46.052;14.544;2024-03-17T07:00:19;58.00;;;22.85;;
56181;SDS011;51963;46.052;14.544;2024-03-17T07:02:53;56.22;;;21.25;;
56181;SDS011;51963;46.052;14.544;2024-03-17T07:05:25;52.15;;;21.00;;
56181;SDS011;51963;46.052;14.544;2024-03-17T07:07:54;61.35;;;22.50;;
56181;SDS011;51963;46.052;14.544;2024-03-17T07:10:21;49.15;;;19.33;;
56181;SDS011;51963;46.052;14.544;2024-03-17T07:12:46;55.45;;;20.85;;
56181;SDS011;51963;46.052;14.544;2024-03-17T07:15:12;49.53;;;20.17;;
56181;SDS011;51963;46.052;14.544;2024-03-17T07:17:37;56.05;;;20.50;;
56181;SDS011;51963;46.052;14.544;2024-03-17T07:20:03;52.42;;;20.63;;
56181;SDS011;51963;46.052;14.544;2024-03-17T07:22:33;64.65;;;22.40;;
56181;SDS011;51963;46.052;14.544;2024-03-17T07:24:58;62.55;;;24.10;;
56181;SDS011;51963;46.052;14.544;2024-03-17T07:27:29;70.78;;;25.38;;
56181;SDS011;51963;46.052;14.544;2024-03-17T07:29:55;63.20;;;24.05;;
56181;SDS011;51963;46.052;14.544;2024-03-17T07:32:21;69.28;;;24.70;;
56181;SDS011;51963;46.052;14.544;2024-03-17T07:34:48;66.30;;;24.43;;
56181;SDS011;51963;46.052;14.544;2024-03-17T07:37:15;67.18;;;24.90;;
56181;SDS011;51963;46.052;14.544;2024-03-17T07:39:41;72.13;;;23.15;;
56181;SDS011;51963;46.052;14.544;2024-03-17T07:42:06;61.83;;;23.85;;
56181;SDS011;51963;46.052;14.544;2024-03-17T07:44:32;61.25;;;25.00;;
56181;SDS011;51963;46.052;14.544;2024-03-17T07:47:01;57.75;;;22.40;;
56181;SDS011;51963;46.052;14.544;2024-03-17T07:49:29;57.00;;;22.45;;
56181;SDS011;51963;46.052;14.544;2024-03-17T07:52:11;54.10;;;23.35;;
56181;SDS011;51963;46.052;14.544;2024-03-17T07:54:37;56.13;;;23.42;;
56181;SDS011;51963;46.052;14.544;2024-03-17T07:57:11;49.63;;;20.95;;
56181;SDS011;51963;46.052;14.544;2024-03-17T07:59:37;50.40;;;20.88;;
56181;SDS011;51963;46.052;14.544;2024-03-17T08:02:08;44.22;;;19.63;;
56181;SDS011;51963;46.052;14.544;2024-03-17T08:04:33;46.33;;;21.13;;
56181;SDS011;51963;46.052;14.544;2024-03-17T08:07:07;49.20;;;22.48;;
56181;SDS011;51963;46.052;14.544;2024-03-17T08:09:33;50.90;;;21.70;;
56181;SDS011;51963;46.052;14.544;2024-03-17T08:11:59;63.88;;;27.45;;
56181;SDS011;51963;46.052;14.544;2024-03-17T08:17:26;76.18;;;29.88;;
56181;SDS011;51963;46.052;14.544;2024-03-17T08:22:50;86.15;;;31.60;;
56181;SDS011;51963;46.052;14.544;2024-03-17T08:26:12;80.57;;;30.60;;
56181;SDS011;51963;46.052;14.544;2024-03-17T08:30:19;86.32;;;30.92;;
56181;SDS011;51963;46.052;14.544;2024-03-17T08:32:44;76.53;;;29.10;;
56181;SDS011;51963;46.052;14.544;2024-03-17T08:35:10;71.30;;;29.05;;
56181;SDS011;51963;46.052;14.544;2024-03-17T08:37:36;64.45;;;26.35;;
56181;SDS011;51963;46.052;14.544;2024-03-17T08:43:01;66.15;;;26.50;;
56181;SDS011;51963;46.052;14.544;2024-03-17T08:45:54;61.95;;;26.55;;
56181;SDS011;51963;46.052;14.544;2024-03-17T08:48:40;68.80;;;28.42;;
56181;SDS011;51963;46.052;14.544;2024-03-17T08:51:13;65.25;;;25.13;;
56181;SDS011;51963;46.052;14.544;2024-03-17T08:53:39;66.47;;;26.50;;
56181;SDS011;51963;46.052;14.544;2024-03-17T08:56:30;62.05;;;24.65;;
56181;SDS011;51963;46.052;14.544;2024-03-17T08:58:56;60.05;;;24.92;;
56181;SDS011;51963;46.052;14.544;2024-03-17T09:01:28;61.60;;;25.85;;
56181;SDS011;51963;46.052;14.544;2024-03-17T09:03:54;59.20;;;24.55;;
56181;SDS011;51963;46.052;14.544;2024-03-17T09:06:25;60.88;;;25.05;;
56181;SDS011;51963;46.052;14.544;2024-03-17T09:08:55;56.97;;;23.67;;
56181;SDS011;51963;46.052;14.544;2024-03-17T09:11:20;58.75;;;23.13;;
56181;SDS011;51963;46.052;14.544;2024-03-17T09:13:54;53.33;;;23.20;;
56181;SDS011;51963;46.052;14.544;2024-03-17T09:16:20;54.42;;;23.42;;
56181;SDS011;51963;46.052;14.544;2024-03-17T09:18:48;57.83;;;23.80;;
56181;SDS011;51963;46.052;14.544;2024-03-17T09:21:20;57.88;;;24.10;;
56181;SDS011;51963;46.052;14.544;2024-03-17T09:23:46;54.08;;;22.40;;
56181;SDS011;51963;46.052;14.544;2024-03-17T09:26:21;53.13;;;22.23;;
56181;SDS011;51963;46.052;14.544;2024-03-17T09:29:10;46.08;;;20.48;;
56181;SDS011;51963;46.052;14.544;2024-03-17T09:31:35;50.60;;;21.13;;
56181;SDS011;51963;46.052;14.544;2024-03-17T09:34:02;43.70;;;19.55;;
56181;SDS011;51963;46.052;14.544;2024-03-17T09:36:28;43.92;;;19.80;;
56181;SDS011;51963;46.052;14.544;2024-03-17T09:38:53;49.40;;;20.85;;
56181;SDS011;51963;46.052;14.544;2024-03-17T09:43:46;50.55;;;22.17;;
56181;SDS011;51963;46.052;14.544;2024-03-17T09:46:13;46.07;;;22.13;;
56181;SDS011;51963;46.052;14.544;2024-03-17T09:48:41;46.43;;;21.17;;
56181;SDS011;51963;46.052;14.544;2024-03-17T09:51:07;52.55;;;22.95;;
56181;SDS011;51963;46.052;14.544;2024-03-17T09:53:44;53.58;;;23.98;;
56181;SDS011;51963;46.052;14.544;2024-03-17T09:56:10;54.20;;;25.88;;
56181;SDS011;51963;46.052;14.544;2024-03-17T10:01:36;53.30;;;25.48;;
56181;SDS011;51963;46.052;14.544;2024-03-17T10:04:01;60.38;;;26.92;;
56181;SDS011;51963;46.052;14.544;2024-03-17T10:06:35;52.92;;;27.05;;
56181;SDS011;51963;46.052;14.544;2024-03-17T10:09:13;53.92;;;27.63;;
56181;SDS011;51963;46.052;14.544;2024-03-17T10:11:51;54.78;;;26.10;;
56181;SDS011;51963;46.052;14.544;2024-03-17T10:14:17;52.85;;;26.20;;
56181;SDS011;51963;46.052;14.544;2024-03-17T10:16:43;54.22;;;27.17;;
56181;SDS011;51963;46.052;14.544;2024-03-17T10:19:14;51.63;;;26.63;;
56181;SDS011;51963;46.052;14.544;2024-03-17T10:21:41;54.75;;;27.10;;
56181;SDS011;51963;46.052;14.544;2024-03-17T10:24:22;52.75;;;26.38;;
56181;SDS011;51963;46.052;14.544;2024-03-17T10:26:51;49.55;;;25.20;;
56181;SDS011;51963;46.052;14.544;2024-03-17T10:31:51;51.28;;;24.38;;
56181;SDS011;51963;46.052;14.544;2024-03-17T10:34:17;41.75;;;22.73;;
56181;SDS011;51963;46.052;14.544;2024-03-17T10:36:50;36.15;;;20.10;;
56181;SDS011;51963;46.052;14.544;2024-03-17T10:41:56;32.80;;;17.50;;
56181;SDS011;51963;46.052;14.544;2024-03-17T10:44:23;28.80;;;16.33;;
56181;SDS011;51963;46.052;14.544;2024-03-17T10:46:48;25.83;;;15.07;;
56181;SDS011;51963;46.052;14.544;2024-03-17T10:49:30;26.73;;;15.27;;
56181;SDS011;51963;46.052;14.544;2024-03-17T10:51:57;24.98;;;15.88;;
56181;SDS011;51963;46.052;14.544;2024-03-17T10:54:25;28.02;;;15.68;;
56181;SDS011;51963;46.052;14.544;2024-03-17T10:56:58;26.75;;;15.02;;
56181;SDS011;51963;46.052;14.544;2024-03-17T11:02:04;22.58;;;12.60;;
56181;SDS011;51963;46.052;14.544;2024-03-17T11:04:50;18.90;;;11.30;;
56181;SDS011;51963;46.052;14.544;2024-03-17T11:07:17;18.30;;;10.95;;
56181;SDS011;51963;46.052;14.544;2024-03-17T11:09:44;19.65;;;10.82;;
56181;SDS011;51963;46.052;14.544;2024-03-17T11:17:48;16.15;;;10.18;;
56181;SDS011;51963;46.052;14.544;2024-03-17T11:20:20;15.02;;;9.82;;
56181;SDS011;51963;46.052;14.544;2024-03-17T11:22:49;15.23;;;10.73;;
56181;SDS011;51963;46.052;14.544;2024-03-17T11:25:59;15.70;;;10.88;;
56181;SDS011;51963;46.052;14.544;2024-03-17T11:28:09;15.02;;;10.05;;
56181;SDS011;51963;46.052;14.544;2024-03-17T11:38:58;10.32;;;6.97;;
56181;SDS011;51963;46.052;14.544;2024-03-17T11:44:14;9.32;;;6.30;;
56181;SDS011;51963;46.052;14.544;2024-03-17T11:50:54;6.95;;;5.97;;
56181;SDS011;51963;46.052;14.544;2024-03-17T11:53:41;6.70;;;5.10;;
56181;SDS011;51963;46.052;14.544;2024-03-17T11:56:14;6.70;;;4.97;;
56181;SDS011;51963;46.052;14.544;2024-03-17T11:59:20;7.70;;;5.47;;
56181;SDS011;51963;46.052;14.544;2024-03-17T12:01:48;6.70;;;5.22;;
56181;SDS011;51963;46.052;14.544;2024-03-17T12:11:23;7.10;;;5.47;;
56181;SDS011;51963;46.052;14.544;2024-03-17T12:21:05;5.90;;;4.70;;
56181;SDS011;51963;46.052;14.544;2024-03-17T12:23:31;6.10;;;4.22;;
56181;SDS011;51963;46.052;14.544;2024-03-17T12:25:56;5.70;;;4.50;;
56181;SDS011;51963;46.052;14.544;2024-03-17T12:28:22;5.13;;;4.05;;
56181;SDS011;51963;46.052;14.544;2024-03-17T12:30:49;6.43;;;4.50;;
56181;SDS011;51963;46.052;14.544;2024-03-17T12:33:15;4.40;;;3.78;;
56181;SDS011;51963;46.052;14.544;2024-03-17T12:35:41;5.50;;;3.83;;
56181;SDS011;51963;46.052;14.544;2024-03-17T12:38:27;3.78;;;3.22;;
56181;SDS011;51963;46.052;14.544;2024-03-17T12:40:52;5.22;;;3.80;;
56181;SDS011;51963;46.052;14.544;2024-03-17T12:43:18;5.53;;;3.50;;
56181;SDS011;51963;46.052;14.544;2024-03-17T12:45:44;4.93;;;3.45;;
56181;SDS011;51963;46.052;14.544;2024-03-17T12:50:46;4.07;;;3.50;;
56181;SDS011;51963;46.052;14.544;2024-03-17T12:53:15;5.80;;;3.83;;
56181;SDS011;51963;46.052;14.544;2024-03-17T12:59:38;5.07;;;3.67;;
56181;SDS011;51963;46.052;14.544;2024-03-17T13:02:29;5.13;;;4.00;;
56181;SDS011;51963;46.052;14.544;2024-03-17T13:05:20;6.25;;;4.80;;
56181;SDS011;51963;46.052;14.544;2024-03-17T13:08:03;5.13;;;3.83;;
56181;SDS011;51963;46.052;14.544;2024-03-17T13:10:29;4.78;;;3.20;;
56181;SDS011;51963;46.052;14.544;2024-03-17T13:13:00;4.78;;;3.63;;
56181;SDS011;51963;46.052;14.544;2024-03-17T13:16:08;4.95;;;3.28;;
56181;SDS011;51963;46.052;14.544;2024-03-17T13:18:44;4.07;;;3.53;;
56181;SDS011;51963;46.052;14.544;2024-03-17T13:21:15;4.60;;;3.90;;
56181;SDS011;51963;46.052;14.544;2024-03-17T13:23:42;5.10;;;3.63;;
56181;SDS011;51963;46.052;14.544;2024-03-17T13:26:13;4.70;;;3.65;;
56181;SDS011;51963;46.052;14.544;2024-03-17T13:28:39;4.57;;;3.78;;
56181;SDS011;51963;46.052;14.544;2024-03-17T13:31:47;4.63;;;3.80;;
56181;SDS011;51963;46.052;14.544;2024-03-17T13:34:12;4.03;;;3.60;;
56181;SDS011;51963;46.052;14.544;2024-03-17T13:36:38;4.00;;;3.42;;
56181;SDS011;51963;46.052;14.544;2024-03-17T13:39:06;5.55;;;3.85;;
56181;SDS011;51963;46.052;14.544;2024-03-17T13:57:16;3.58;;;2.42;;
56181;SDS011;51963;46.052;14.544;2024-03-17T13:59:42;3.30;;;2.63;;
56181;SDS011;51963;46.052;14.544;2024-03-17T14:14:51;6.72;;;3.40;;
56181;SDS011;51963;46.052;14.544;2024-03-17T14:17:30;6.72;;;5.30;;
56181;SDS011;51963;46.052;14.544;2024-03-17T14:20:01;5.10;;;3.45;;
56181;SDS011;51963;46.052;14.544;2024-03-17T14:22:38;3.10;;;2.80;;
56181;SDS011;51963;46.052;14.544;2024-03-17T14:25:36;3.97;;;2.55;;
56181;SDS011;51963;46.052;14.544;2024-03-17T14:28:05;8.07;;;5.93;;
56181;SDS011;51963;46.052;14.544;2024-03-17T14:31:03;6.97;;;5.30;;
56181;SDS011;51963;46.052;14.544;2024-03-17T14:33:29;7.47;;;5.30;;
56181;SDS011;51963;46.052;14.544;2024-03-17T14:36:09;3.80;;;2.88;;
56181;SDS011;51963;46.052;14.544;2024-03-17T14:38:39;4.05;;;3.65;;
56181;SDS011;51963;46.052;14.544;2024-03-17T14:41:04;18.48;;;10.95;;
56181;SDS011;51963;46.052;14.544;2024-03-17T14:43:31;9.20;;;6.55;;
56181;SDS011;51963;46.052;14.544;2024-03-17T14:46:04;51.83;;;28.92;;
56181;SDS011;51963;46.052;14.544;2024-03-17T14:51:23;3.55;;;2.30;;
56181;SDS011;51963;46.052;14.544;2024-03-17T14:53:49;7.88;;;5.30;;
56181;SDS011;51963;46.052;14.544;2024-03-17T14:56:49;2.38;;;1.77;;
56181;SDS011;51963;46.052;14.544;2024-03-17T14:59:15;7.50;;;5.18;;
56181;SDS011;51963;46.052;14.544;2024-03-17T15:04:41;3.00;;;2.08;;
56181;SDS011;51963;46.052;14.544;2024-03-17T15:13:42;3.05;;;2.00;;
56181;SDS011;51963;46.052;14.544;2024-03-17T15:16:20;4.55;;;2.30;;
56181;SDS011;51963;46.052;14.544;2024-03-17T15:18:47;2.75;;;2.15;;
56181;SDS011;51963;46.052;14.544;2024-03-17T15:21:12;3.42;;;2.30;;
56181;SDS011;51963;46.052;14.544;2024-03-17T15:23:38;3.33;;;3.00;;
56181;SDS011;51963;46.052;14.544;2024-03-17T15:34:58;7.10;;;4.20;;
56181;SDS011;51963;46.052;14.544;2024-03-17T15:42:35;6.47;;;4.45;;
56181;SDS011;51963;46.052;14.544;2024-03-17T15:45:03;5.13;;;3.40;;
56181;SDS011;51963;46.052;14.544;2024-03-17T15:47:33;4.00;;;2.22;;
56181;SDS011;51963;46.052;14.544;2024-03-17T15:49:59;1.77;;;1.63;;
56181;SDS011;51963;46.052;14.544;2024-03-17T15:52:24;9.60;;;7.18;;
56181;SDS011;51963;46.052;14.544;2024-03-17T15:54:50;7.18;;;4.03;;
56181;SDS011;51963;46.052;14.544;2024-03-17T15:57:20;11.80;;;7.57;;
56181;SDS011;51963;46.052;14.544;2024-03-17T15:59:53;11.43;;;6.38;;
56181;SDS011;51963;46.052;14.544;2024-03-17T16:02:20;13.32;;;8.60;;
56181;SDS011;51963;46.052;14.544;2024-03-17T16:04:58;5.43;;;3.00;;
56181;SDS011;51963;46.052;14.544;2024-03-17T16:07:24;20.92;;;11.10;;
56181;SDS011;51963;46.052;14.544;2024-03-17T16:09:50;9.60;;;6.30;;
56181;SDS011;51963;46.052;14.544;2024-03-17T16:12:21;11.57;;;7.53;;
56181;SDS011;51963;46.052;14.544;2024-03-17T16:14:49;7.90;;;5.68;;
56181;SDS011;51963;46.052;14.544;2024-03-17T16:17:15;9.85;;;6.00;;
56181;SDS011;51963;46.052;14.544;2024-03-17T16:19:41;3.90;;;2.60;;
56181;SDS011;51963;46.052;14.544;2024-03-17T16:22:11;10.93;;;6.20;;
56181;SDS011;51963;46.052;14.544;2024-03-17T16:24:38;7.78;;;4.70;;
56181;SDS011;51963;46.052;14.544;2024-03-17T16:27:20;7.25;;;4.22;;
56181;SDS011;51963;46.052;14.544;2024-03-17T16:29:45;7.85;;;4.53;;
56181;SDS011;51963;46.052;14.544;2024-03-17T16:32:11;9.70;;;4.88;;
56181;SDS011;51963;46.052;14.544;2024-03-17T16:34:37;5.95;;;2.83;;
56181;SDS011;51963;46.052;14.544;2024-03-17T16:37:03;7.53;;;3.80;;
56181;SDS011;51963;46.052;14.544;2024-03-17T16:39:30;9.20;;;4.10;;